Time;durP1;ratioP1;P1;durP2;ratioP2;P2;SDS_P1;SDS_P2;PMS_P1;PMS_P2;Temp;Humidity;BMP_temperature;BMP_pressure;BME280_temperature;BME280_humidity;BME280_pressure;Samples;Min_cycle;Max_cycle;Signal;HPM_P1;HPM_P2
2023/12/04 00:00:24;;;;;;;12.23;8.43;;;2.90;99.90;;;;;;5031827;28;20354;-86
2023/12/04 00:02:49;;;;;;;12.15;8.50;;;3.00;99.90;;;;;;5031560;28;20088;-86
2023/12/04 00:05:15;;;;;;;15.30;8.48;;;3.00;99.90;;;;;;5035025;28;20053;-86
2023/12/04 00:07:40;;;;;;;14.40;8.80;;;3.00;99.90;;;;;;5035158;28;20488;-85
2023/12/04 00:10:07;;;;;;;17.55;9.52;;;3.10;99.90;;;;;;5035244;28;20029;-87
2023/12/04 00:12:32;;;;;;;14.70;9.35;;;3.10;99.90;;;;;;5042089;28;20048;-86
2023/12/04 00:14:59;;;;;;;16.45;9.38;;;3.00;99.90;;;;;;5057799;28;20033;-86
2023/12/04 00:17:25;;;;;;;14.15;8.98;;;3.00;99.90;;;;;;5052558;28;20119;-87
2023/12/04 00:19:50;;;;;;;13.55;8.63;;;3.00;99.90;;;;;;5054739;28;20136;-87
2023/12/04 00:22:16;;;;;;;13.90;9.02;;;3.00;99.90;;;;;;5055944;28;20083;-87
2023/12/04 00:24:41;;;;;;;12.90;8.90;;;3.00;99.90;;;;;;5055784;28;20017;-86
2023/12/04 00:27:07;;;;;;;13.70;8.52;;;3.00;99.90;;;;;;5054694;28;20039;-87
2023/12/04 00:29:33;;;;;;;12.70;8.73;;;3.00;99.90;;;;;;5048920;28;20032;-86
2023/12/04 00:31:58;;;;;;;14.02;8.73;;;3.00;99.90;;;;;;5037445;28;20060;-86
2023/12/04 00:34:24;;;;;;;15.25;9.55;;;3.00;99.90;;;;;;5053408;28;20033;-87
2023/12/04 00:36:49;;;;;;;15.52;8.02;;;3.00;99.90;;;;;;5052770;28;20033;-86
2023/12/04 00:39:16;;;;;;;15.68;9.52;;;3.00;99.90;;;;;;5055077;28;20025;-87
2023/12/04 00:41:41;;;;;;;17.77;9.73;;;3.00;99.90;;;;;;5052096;28;20025;-87
2023/12/04 00:44:07;;;;;;;16.15;10.52;;;3.00;99.90;;;;;;5034799;28;20030;-87
2023/12/04 00:46:32;;;;;;;12.18;8.60;;;3.00;99.90;;;;;;5034921;28;20026;-87
2023/12/04 00:48:58;;;;;;;11.93;8.35;;;3.00;99.90;;;;;;5034511;28;20037;-87
2023/12/04 00:51:23;;;;;;;14.52;9.00;;;3.00;99.90;;;;;;5035657;28;20029;-88
2023/12/04 00:53:49;;;;;;;17.17;9.20;;;3.00;99.90;;;;;;5034935;28;20431;-87
2023/12/04 00:56:15;;;;;;;13.38;8.45;;;3.00;99.90;;;;;;5034493;28;20029;-87
2023/12/04 00:58:40;;;;;;;16.83;8.15;;;3.00;99.90;;;;;;5034124;28;20025;-87
2023/12/04 01:01:06;;;;;;;15.60;8.75;;;3.00;99.90;;;;;;5042823;28;20159;-86
2023/12/04 01:03:33;;;;;;;12.75;8.80;;;3.00;99.90;;;;;;5054157;28;20386;-87
2023/12/04 01:05:59;;;;;;;15.00;9.30;;;3.00;99.90;;;;;;5054356;28;20143;-87
2023/12/04 01:08:25;;;;;;;15.23;9.60;;;3.00;99.90;;;;;;5043899;28;20109;-87
2023/12/04 01:10:50;;;;;;;14.95;8.90;;;3.00;99.90;;;;;;5036344;28;20057;-87
2023/12/04 01:13:16;;;;;;;13.13;8.90;;;3.00;99.90;;;;;;5049797;28;20075;-86
2023/12/04 01:15:42;;;;;;;17.98;9.55;;;3.00;99.90;;;;;;5053982;28;20036;-86
2023/12/04 01:18:08;;;;;;;14.07;8.68;;;3.00;99.90;;;;;;5054302;28;20074;-87
2023/12/04 01:20:34;;;;;;;15.10;8.82;;;3.00;99.90;;;;;;5053766;28;20177;-87
2023/12/04 01:22:59;;;;;;;15.95;9.05;;;3.00;99.90;;;;;;5059533;28;20029;-87
2023/12/04 01:25:25;;;;;;;16.45;8.75;;;3.00;99.90;;;;;;5062946;28;20029;-86
2023/12/04 01:27:51;;;;;;;13.52;8.38;;;3.10;99.90;;;;;;5058110;28;20112;-87
2023/12/04 01:30:16;;;;;;;14.45;8.60;;;3.10;99.90;;;;;;5053881;28;20377;-86
2023/12/04 01:32:42;;;;;;;15.93;9.43;;;3.00;99.90;;;;;;5048719;28;20049;-87
2023/12/04 01:35:08;;;;;;;12.98;8.27;;;3.10;99.90;;;;;;5033620;28;20032;-87
2023/12/04 01:37:33;;;;;;;12.82;8.55;;;3.10;99.90;;;;;;5046966;28;20037;-86
2023/12/04 01:39:59;;;;;;;16.17;9.15;;;3.10;99.90;;;;;;5033822;28;20030;-88
2023/12/04 01:42:24;;;;;;;17.42;9.55;;;3.00;99.90;;;;;;5034213;28;20091;-87
2023/12/04 01:44:50;;;;;;;15.80;8.68;;;3.00;99.90;;;;;;5033947;28;20021;-87
2023/12/04 01:47:17;;;;;;;16.58;9.07;;;3.10;99.90;;;;;;5034066;28;20034;-86
2023/12/04 01:49:43;;;;;;;13.73;8.88;;;3.00;99.90;;;;;;5033963;28;20026;-86
2023/12/04 01:52:09;;;;;;;12.23;8.52;;;3.10;99.90;;;;;;5033683;28;20029;-87
2023/12/04 01:54:36;;;;;;;12.05;8.27;;;3.10;99.90;;;;;;5042271;28;20489;-86
2023/12/04 01:57:03;;;;;;;15.73;8.85;;;3.10;99.90;;;;;;5037419;28;20041;-87
2023/12/04 01:59:28;;;;;;;13.27;8.90;;;3.00;99.90;;;;;;5032779;28;20029;-86
2023/12/04 02:01:54;;;;;;;16.52;9.00;;;3.00;99.90;;;;;;5032809;28;20580;-85
2023/12/04 02:04:21;;;;;;;12.80;8.40;;;3.00;99.90;;;;;;5041061;28;20082;-86
2023/12/04 02:06:46;;;;;;;15.40;8.40;;;3.00;99.90;;;;;;5034206;28;20401;-86
2023/12/04 02:09:13;;;;;;;15.88;9.02;;;3.00;99.90;;;;;;5033273;28;20025;-86
2023/12/04 02:11:40;;;;;;;13.55;9.20;;;3.10;99.90;;;;;;5033562;28;20021;-85
2023/12/04 02:14:06;;;;;;;16.65;8.85;;;3.00;99.90;;;;;;5033027;28;20492;-85
2023/12/04 02:16:36;;;;;;;11.82;8.15;;;3.10;99.90;;;;;;5035548;28;20047;-85
2023/12/04 02:19:03;;;;;;;;;;;3.00;99.90;;;;;;5033712;28;20124;-86
2023/12/04 02:21:28;;;;;;;13.63;8.43;;;3.00;99.90;;;;;;5033265;28;20000;-86
2023/12/04 02:23:54;;;;;;;14.85;9.48;;;3.00;99.90;;;;;;5033202;28;20057;-86
2023/12/04 02:26:27;;;;;;;13.57;7.93;;;3.00;99.90;;;;;;5031932;28;20116;-86
2023/12/04 02:28:57;;;;;;;14.30;9.23;;;3.00;99.90;;;;;;5033180;28;20021;-86
2023/12/04 02:31:24;;;;;;;;;;;3.00;99.90;;;;;;5032960;28;20154;-86
2023/12/04 02:33:55;;;;;;;15.98;9.02;;;3.00;99.90;;;;;;5034794;28;19909;-85
2023/12/04 02:36:23;;;;;;;11.93;8.07;;;3.00;99.90;;;;;;5033112;28;20068;-86
2023/12/04 02:38:50;;;;;;;14.60;8.77;;;3.10;99.90;;;;;;5037140;28;20066;-86
2023/12/04 02:41:17;;;;;;;14.88;9.50;;;3.00;99.90;;;;;;5052753;28;20033;-86
2023/12/04 02:43:43;;;;;;;14.50;8.75;;;3.00;99.90;;;;;;5052677;28;20477;-86
2023/12/04 02:46:09;;;;;;;12.95;7.80;;;3.00;99.90;;;;;;5053072;28;20033;-86
2023/12/04 02:48:34;;;;;;;13.98;8.05;;;3.00;99.90;;;;;;5044769;28;20113;-86
2023/12/04 02:51:00;;;;;;;14.10;8.60;;;3.00;99.90;;;;;;5032905;28;20515;-86
2023/12/04 02:53:25;;;;;;;13.07;8.38;;;3.00;99.90;;;;;;5032778;28;20033;-86
2023/12/04 02:55:51;;;;;;;12.52;8.18;;;3.00;99.90;;;;;;5033327;28;20095;-86
2023/12/04 02:58:16;;;;;;;15.65;8.30;;;3.00;99.90;;;;;;5057274;28;20006;-86
2023/12/04 03:00:42;;;;;;;13.02;8.50;;;3.00;99.90;;;;;;5064009;28;20116;-86
2023/12/04 03:03:07;;;;;;;11.43;8.27;;;3.00;99.90;;;;;;5050916;28;20029;-87
2023/12/04 03:05:33;;;;;;;13.00;8.68;;;3.00;99.90;;;;;;5054427;28;20504;-86
2023/12/04 03:07:58;;;;;;;14.88;8.15;;;3.00;99.90;;;;;;5058818;28;20484;-86
2023/12/04 03:10:24;;;;;;;12.80;8.05;;;3.00;99.90;;;;;;5055239;28;20484;-86
2023/12/04 03:12:49;;;;;;;14.02;8.55;;;3.10;99.90;;;;;;5052448;28;20496;-86
2023/12/04 03:15:15;;;;;;;13.88;8.07;;;3.00;99.90;;;;;;5052446;28;20527;-86
2023/12/04 03:17:41;;;;;;;18.35;7.80;;;3.00;99.90;;;;;;5049022;28;20063;-86
2023/12/04 03:20:08;;;;;;;10.32;6.88;;;3.00;99.90;;;;;;5033910;28;20053;-85
2023/12/04 03:22:35;;;;;;;14.60;8.25;;;3.10;99.90;;;;;;5031630;28;20485;-85
2023/12/04 03:25:00;;;;;;;14.90;8.77;;;3.10;99.90;;;;;;5032469;28;20171;-86
2023/12/04 03:27:26;;;;;;;12.25;7.82;;;3.10;99.90;;;;;;5032708;28;20521;-87
2023/12/04 03:29:51;;;;;;;12.38;7.85;;;3.10;99.90;;;;;;5038749;28;20031;-87
2023/12/04 03:32:17;;;;;;;14.20;8.20;;;3.00;99.90;;;;;;5052675;28;20060;-86
2023/12/04 03:34:42;;;;;;;13.00;7.68;;;3.00;99.90;;;;;;5052642;28;20063;-86
2023/12/04 03:37:08;;;;;;;15.00;8.60;;;3.00;99.90;;;;;;5053672;28;20045;-87
2023/12/04 03:39:33;;;;;;;11.38;8.43;;;3.10;99.90;;;;;;5054499;28;20021;-87
2023/12/04 03:41:59;;;;;;;13.07;8.43;;;3.00;99.90;;;;;;5056871;28;20029;-87
2023/12/04 03:44:25;;;;;;;12.48;7.95;;;3.10;99.90;;;;;;5036799;28;20025;-87
2023/12/04 03:46:51;;;;;;;11.60;7.97;;;3.10;99.90;;;;;;5035915;28;20068;-87
2023/12/04 03:49:17;;;;;;;12.82;7.93;;;3.00;99.90;;;;;;5056183;28;20452;-87
2023/12/04 03:51:43;;;;;;;12.57;7.47;;;3.10;99.90;;;;;;5054742;28;20044;-86
2023/12/04 03:54:08;;;;;;;10.63;6.65;;;3.10;99.90;;;;;;5074393;28;20029;-86
2023/12/04 03:56:34;;;;;;;10.80;7.50;;;3.10;99.90;;;;;;5061074;28;20123;-87
2023/12/04 03:58:59;;;;;;;13.65;8.40;;;3.10;99.90;;;;;;5056431;28;20055;-88
2023/12/04 04:01:25;;;;;;;10.05;7.75;;;3.10;99.90;;;;;;5049585;28;20029;-87
2023/12/04 04:03:50;;;;;;;9.90;6.60;;;3.00;99.90;;;;;;5049648;28;20021;-87
2023/12/04 04:06:16;;;;;;;10.30;7.43;;;3.10;99.90;;;;;;5050731;28;20071;-87
2023/12/04 04:08:41;;;;;;;11.13;7.50;;;3.10;99.90;;;;;;5041421;28;20103;-87
2023/12/04 04:11:07;;;;;;;11.30;7.72;;;3.10;99.90;;;;;;5036714;28;20053;-88
2023/12/04 04:13:32;;;;;;;9.48;6.88;;;3.10;99.90;;;;;;5034713;28;20021;-86
2023/12/04 04:15:58;;;;;;;13.00;7.22;;;3.10;99.90;;;;;;5039387;28;20021;-87
2023/12/04 04:18:23;;;;;;;10.77;7.95;;;3.00;99.90;;;;;;5036497;28;20371;-87
2023/12/04 04:20:49;;;;;;;10.13;7.15;;;3.10;99.90;;;;;;5034981;28;20550;-88
2023/12/04 04:23:14;;;;;;;13.40;6.70;;;3.10;99.90;;;;;;5054484;28;20473;-86
2023/12/04 04:25:40;;;;;;;12.18;7.03;;;3.00;99.90;;;;;;5041138;28;20485;-87
2023/12/04 04:28:05;;;;;;;11.02;6.85;;;3.10;99.90;;;;;;5053232;28;20052;-87
2023/12/04 04:30:31;;;;;;;15.20;8.63;;;3.10;99.90;;;;;;5055434;28;20047;-86
2023/12/04 04:32:56;;;;;;;11.30;7.45;;;3.10;99.90;;;;;;5054731;28;20378;-86
2023/12/04 04:35:22;;;;;;;12.80;7.32;;;3.00;99.90;;;;;;5054016;28;20381;-86
2023/12/04 04:37:48;;;;;;;11.77;7.60;;;3.10;99.90;;;;;;5034698;28;20381;-86
2023/12/04 04:40:13;;;;;;;14.55;8.27;;;3.10;99.90;;;;;;5034622;28;20474;-86
2023/12/04 04:42:39;;;;;;;15.98;8.23;;;3.10;99.90;;;;;;5033920;28;20116;-86
2023/12/04 04:45:05;;;;;;;10.27;7.20;;;3.00;99.90;;;;;;5036068;28;20546;-86
2023/12/04 04:47:30;;;;;;;11.93;7.90;;;3.10;99.90;;;;;;5038578;28;20492;-86
2023/12/04 04:49:56;;;;;;;14.02;8.07;;;3.10;99.90;;;;;;5064930;28;20411;-86
2023/12/04 04:52:21;;;;;;;11.60;6.80;;;3.10;99.90;;;;;;5060571;28;20029;-86
2023/12/04 04:54:47;;;;;;;12.27;7.65;;;3.10;99.90;;;;;;5057068;28;20468;-86
2023/12/04 04:57:12;;;;;;;11.57;8.05;;;3.10;99.90;;;;;;5054379;28;20036;-87
2023/12/04 04:59:38;;;;;;;11.65;7.75;;;3.10;99.90;;;;;;5037265;28;20494;-86
2023/12/04 05:02:03;;;;;;;10.77;7.28;;;3.10;99.90;;;;;;5034360;28;20478;-86
2023/12/04 05:04:29;;;;;;;12.65;7.97;;;3.10;99.90;;;;;;5044511;28;20534;-86
2023/12/04 05:06:55;;;;;;;10.50;6.90;;;3.10;99.90;;;;;;5048445;28;20489;-86
2023/12/04 05:09:20;;;;;;;10.80;6.93;;;3.10;99.90;;;;;;5034230;28;20041;-86
2023/12/04 05:11:46;;;;;;;9.43;7.03;;;3.10;99.90;;;;;;5034726;28;20057;-85
2023/12/04 05:14:12;;;;;;;10.90;7.47;;;3.10;99.90;;;;;;5034576;28;20067;-86
2023/12/04 05:16:37;;;;;;;11.95;7.57;;;3.10;99.90;;;;;;5045919;28;20040;-86
2023/12/04 05:19:03;;;;;;;11.75;7.40;;;3.10;99.90;;;;;;5053919;28;20032;-86
2023/12/04 05:21:28;;;;;;;11.45;7.22;;;3.10;99.90;;;;;;5054282;28;20033;-86
2023/12/04 05:23:54;;;;;;;13.00;7.50;;;3.20;99.90;;;;;;5053770;28;20025;-88
2023/12/04 05:26:19;;;;;;;8.57;6.60;;;3.10;99.90;;;;;;5037693;28;20037;-87
2023/12/04 05:28:46;;;;;;;10.55;6.50;;;3.10;99.90;;;;;;5033878;28;20032;-87
2023/12/04 05:31:11;;;;;;;12.48;7.30;;;3.10;99.90;;;;;;5050352;28;20066;-86
2023/12/04 05:33:37;;;;;;;11.70;7.63;;;3.20;99.90;;;;;;5049806;28;20108;-86
2023/12/04 05:36:03;;;;;;;10.85;7.28;;;3.20;99.90;;;;;;5039178;28;20044;-86
2023/12/04 05:38:28;;;;;;;13.48;7.25;;;3.10;99.90;;;;;;5051267;28;20035;-86
2023/12/04 05:40:54;;;;;;;9.95;7.10;;;3.20;99.90;;;;;;5053676;28;20029;-86
2023/12/04 05:43:20;;;;;;;8.85;6.60;;;3.10;99.90;;;;;;5071992;28;20438;-85
2023/12/04 05:45:45;;;;;;;9.30;6.35;;;3.10;99.90;;;;;;5053886;28;20026;-86
2023/12/04 05:48:11;;;;;;;10.60;6.40;;;3.10;99.90;;;;;;5034614;28;20040;-85
2023/12/04 05:50:37;;;;;;;11.32;7.68;;;4.00;99.90;;;;;;5033114;28;20470;-85
2023/12/04 05:53:02;;;;;;;19.67;8.02;;;3.10;99.90;;;;;;5042633;28;20063;-85
2023/12/04 05:55:28;;;;;;;8.90;6.28;;;3.20;99.90;;;;;;5053927;28;20056;-85
2023/12/04 05:57:53;;;;;;;10.60;7.22;;;3.20;99.90;;;;;;5034819;28;20033;-86
2023/12/04 06:00:19;;;;;;;12.05;7.93;;;3.20;99.90;;;;;;5033184;28;20052;-86
2023/12/04 06:02:45;;;;;;;11.02;6.95;;;3.20;99.90;;;;;;5036772;28;20115;-86
2023/12/04 06:05:11;;;;;;;10.90;6.78;;;3.20;99.90;;;;;;5052833;28;20041;-85
2023/12/04 06:07:37;;;;;;;9.80;6.50;;;3.20;99.90;;;;;;5049590;28;20033;-86
2023/12/04 06:10:08;;;;;;;11.20;7.78;;;3.20;99.90;;;;;;5043167;28;20503;-86
2023/12/04 06:12:33;;;;;;;;;;;3.20;99.90;;;;;;5041415;28;20078;-86
2023/12/04 06:14:59;;;;;;;10.55;6.93;;;3.30;99.90;;;;;;5034440;28;19905;-86
2023/12/04 06:17:25;;;;;;;12.88;7.60;;;3.30;99.90;;;;;;5033556;28;20466;-87
2023/12/04 06:19:51;;;;;;;10.68;7.50;;;3.30;99.90;;;;;;5032560;28;20022;-86
2023/12/04 06:22:19;;;;;;;11.18;7.65;;;3.20;99.90;;;;;;5033787;28;20029;-85
2023/12/04 06:24:46;;;;;;;11.98;6.90;;;3.20;99.90;;;;;;5033423;28;20458;-85
2023/12/04 06:27:16;;;;;;;12.95;7.78;;;3.20;99.90;;;;;;5032823;28;20029;-85
2023/12/04 06:29:43;;;;;;;12.18;7.53;;;3.20;99.90;;;;;;5040746;28;20025;-85
2023/12/04 06:32:09;;;;;;;11.52;7.78;;;3.20;99.90;;;;;;5052955;28;20033;-85
2023/12/04 06:34:35;;;;;;;11.00;7.07;;;3.20;99.90;;;;;;5031597;28;20036;-85
2023/12/04 06:37:02;;;;;;;11.13;7.00;;;3.20;99.90;;;;;;5036770;28;20041;-87
2023/12/04 06:39:31;;;;;;;10.82;7.38;;;3.20;99.90;;;;;;5046474;28;20021;-85
2023/12/04 06:41:57;;;;;;;12.00;8.00;;;3.20;99.90;;;;;;5047031;28;20099;-84
2023/12/04 06:44:23;;;;;;;10.80;7.88;;;3.20;99.90;;;;;;5051891;28;20107;-85
2023/12/04 06:46:50;;;;;;;11.95;7.72;;;3.70;99.90;;;;;;5051948;28;20028;-85
2023/12/04 06:49:17;;;;;;;10.52;7.38;;;3.20;99.90;;;;;;5051492;28;20473;-85
2023/12/04 06:51:43;;;;;;;10.10;7.22;;;3.20;99.90;;;;;;5035060;28;20033;-86
2023/12/04 06:54:08;;;;;;;12.68;8.07;;;3.20;99.90;;;;;;5031656;28;20025;-85
2023/12/04 06:56:34;;;;;;;11.48;6.95;;;3.20;99.90;;;;;;5032332;28;20116;-85
2023/12/04 06:58:59;;;;;;;11.02;7.30;;;3.20;99.90;;;;;;5032746;28;20021;-85
2023/12/04 07:01:25;;;;;;;11.10;7.18;;;3.30;99.90;;;;;;5032450;28;20386;-85
2023/12/04 07:03:51;;;;;;;10.35;7.00;;;3.30;99.90;;;;;;5032496;28;20478;-85
2023/12/04 07:06:16;;;;;;;10.30;7.18;;;3.30;99.90;;;;;;5032659;28;20115;-85
2023/12/04 07:08:42;;;;;;;12.50;7.93;;;3.30;99.90;;;;;;5031518;28;20442;-86
2023/12/04 07:11:08;;;;;;;9.52;6.65;;;3.30;99.90;;;;;;5032629;28;20048;-86
2023/12/04 07:13:34;;;;;;;12.75;8.00;;;3.30;99.90;;;;;;5035125;28;20535;-85
2023/12/04 07:15:59;;;;;;;10.02;7.60;;;3.30;99.90;;;;;;5049961;28;20040;-85
2023/12/04 07:18:25;;;;;;;12.55;7.28;;;3.30;99.90;;;;;;5053802;28;20025;-93
2023/12/04 07:20:51;;;;;;;11.60;7.22;;;3.30;99.90;;;;;;5053841;28;20032;-89
2023/12/04 07:23:16;;;;;;;11.65;8.02;;;3.30;99.90;;;;;;5043095;28;20038;-86
2023/12/04 07:25:42;;;;;;;10.13;7.28;;;3.30;99.90;;;;;;5052533;28;20029;-92
2023/12/04 07:28:07;;;;;;;11.65;7.90;;;3.40;99.90;;;;;;5053262;28;20137;-86
2023/12/04 07:30:33;;;;;;;14.35;7.75;;;3.30;99.90;;;;;;5070471;28;20025;-88
2023/12/04 07:32:59;;;;;;;10.50;6.80;;;3.30;99.90;;;;;;5043945;28;20037;-85
2023/12/04 07:35:26;;;;;;;12.15;6.78;;;3.30;99.90;;;;;;5034245;28;20022;-88
2023/12/04 07:37:52;;;;;;;10.05;6.93;;;3.30;99.90;;;;;;5045173;28;20036;-85
2023/12/04 07:40:18;;;;;;;10.30;6.45;;;3.30;99.90;;;;;;5053046;28;20040;-87
2023/12/04 07:42:43;;;;;;;8.73;6.97;;;3.30;99.90;;;;;;5052233;28;20029;-87
2023/12/04 07:45:10;;;;;;;10.65;7.40;;;3.30;99.90;;;;;;5046890;28;20107;-86
2023/12/04 07:47:36;;;;;;;9.75;6.68;;;3.30;99.90;;;;;;5048685;28;20466;-92
2023/12/04 07:50:01;;;;;;;10.27;6.72;;;3.30;99.90;;;;;;5053260;28;20088;-91
2023/12/04 07:52:27;;;;;;;10.30;7.20;;;3.30;99.90;;;;;;5052998;28;20538;-90
2023/12/04 07:54:52;;;;;;;16.48;7.43;;;3.50;99.90;;;;;;5053671;28;20082;-92
2023/12/04 07:57:18;;;;;;;51.58;10.68;;;3.30;99.90;;;;;;5047015;28;20395;-86
2023/12/04 07:59:44;;;;;;;10.18;6.88;;;3.30;99.90;;;;;;5051709;28;20501;-86
2023/12/04 08:02:10;;;;;;;10.45;6.38;;;3.30;99.90;;;;;;5051915;28;20021;-85
2023/12/04 08:04:36;;;;;;;11.35;5.97;;;3.30;99.90;;;;;;5044981;28;20034;-85
2023/12/04 08:07:03;;;;;;;12.75;6.53;;;3.30;99.90;;;;;;5051792;28;20036;-86
2023/12/04 08:09:28;;;;;;;8.30;6.07;;;3.30;99.90;;;;;;5050470;28;20029;-86
2023/12/04 08:11:54;;;;;;;10.93;7.38;;;3.30;99.90;;;;;;5049032;28;20412;-87
2023/12/04 08:14:19;;;;;;;9.25;6.22;;;3.40;99.90;;;;;;5053886;28;20469;-88
2023/12/04 08:16:45;;;;;;;8.13;6.03;;;3.40;99.90;;;;;;5057292;28;20036;-93
2023/12/04 08:19:10;;;;;;;13.63;6.68;;;3.40;99.90;;;;;;5071598;28;20025;-93
2023/12/04 08:21:36;;;;;;;7.97;5.32;;;3.30;99.90;;;;;;5053456;28;20044;-86
2023/12/04 08:24:02;;;;;;;6.93;5.55;;;3.20;99.90;;;;;;5070117;28;20485;-88
2023/12/04 08:26:27;;;;;;;7.22;5.47;;;3.40;99.90;;;;;;5061093;28;20429;-88
2023/12/04 08:28:53;;;;;;;9.15;5.43;;;3.40;99.90;;;;;;5036069;28;20385;-87
2023/12/04 08:31:18;;;;;;;9.52;6.38;;;3.40;99.90;;;;;;5035737;28;20486;-87
2023/12/04 08:33:44;;;;;;;8.90;6.22;;;3.40;99.90;;;;;;5034626;28;20060;-89
2023/12/04 08:36:11;;;;;;;7.25;5.57;;;3.40;99.90;;;;;;5038467;28;20047;-88
2023/12/04 08:38:36;;;;;;;8.10;6.13;;;3.40;99.90;;;;;;5059107;28;20021;-89
2023/12/04 08:41:03;;;;;;;9.00;5.55;;;3.40;99.90;;;;;;5053499;28;20373;-89
2023/12/04 08:43:29;;;;;;;7.70;6.30;;;3.40;99.90;;;;;;5053498;28;20032;-89
2023/12/04 08:45:55;;;;;;;7.93;5.80;;;4.00;99.90;;;;;;5054629;28;20033;-93
2023/12/04 08:48:20;;;;;;;6.57;5.55;;;3.40;99.90;;;;;;5055578;28;20028;-91
2023/12/04 08:50:47;;;;;;;7.15;5.22;;;3.40;99.90;;;;;;5055551;28;20063;-93
2023/12/04 08:53:13;;;;;;;7.03;5.43;;;4.40;99.90;;;;;;5055806;28;20112;-92
2023/12/04 08:55:38;;;;;;;8.63;5.03;;;3.40;99.90;;;;;;5055746;28;20085;-93
2023/12/04 08:58:04;;;;;;;6.82;5.65;;;4.50;99.90;;;;;;5054070;28;20025;-95
2023/12/04 09:00:30;;;;;;;9.38;5.80;;;3.40;99.90;;;;;;5054542;28;20033;-86
2023/12/04 09:02:55;;;;;;;6.75;5.35;;;3.40;99.90;;;;;;5054069;28;20099;-90
2023/12/04 09:05:22;;;;;;;6.32;5.18;;;3.40;99.90;;;;;;5055151;28;20433;-90
2023/12/04 09:07:49;;;;;;;10.45;5.97;;;3.40;99.90;;;;;;5057345;28;20028;-92
2023/12/04 09:10:14;;;;;;;8.32;5.90;;;3.40;99.90;;;;;;5053359;28;20024;-92
2023/12/04 09:12:40;;;;;;;8.35;5.32;;;4.20;99.90;;;;;;5051091;28;20358;-92
2023/12/04 09:15:07;;;;;;;6.72;5.22;;;3.40;99.90;;;;;;5056824;28;20018;-92
2023/12/04 09:17:33;;;;;;;7.13;5.82;;;3.50;99.90;;;;;;5066839;28;20025;-91
2023/12/04 09:19:58;;;;;;;7.03;4.95;;;3.40;99.90;;;;;;5075831;28;20134;-91
2023/12/04 09:22:24;;;;;;;6.75;5.18;;;3.40;99.90;;;;;;5058902;28;20108;-92
2023/12/04 09:24:49;;;;;;;12.15;5.05;;;3.40;99.90;;;;;;5047642;28;20052;-91
2023/12/04 09:27:16;;;;;;;6.28;5.40;;;3.50;99.90;;;;;;5041008;28;20361;-91
2023/12/04 09:29:42;;;;;;;5.68;5.07;;;3.50;99.90;;;;;;5043157;28;20026;-91
2023/12/04 09:32:09;;;;;;;7.13;5.70;;;3.50;99.90;;;;;;5041984;28;20032;-90
2023/12/04 09:34:35;;;;;;;5.88;5.20;;;3.40;99.90;;;;;;5054997;28;20437;-91
2023/12/04 09:37:00;;;;;;;8.93;5.10;;;3.50;99.90;;;;;;5055172;28;20072;-91
2023/12/04 09:39:27;;;;;;;7.10;4.72;;;3.50;99.90;;;;;;5045507;28;20462;-91
2023/12/04 09:41:54;;;;;;;5.55;4.90;;;3.50;99.90;;;;;;5041642;28;20033;-91
2023/12/04 09:44:22;;;;;;;6.97;5.22;;;3.50;99.90;;;;;;5046661;28;20036;-92
2023/12/04 09:46:47;;;;;;;8.45;4.75;;;3.50;99.90;;;;;;5034121;28;20480;-91
2023/12/04 09:49:14;;;;;;;11.75;5.18;;;3.60;99.90;;;;;;5037040;28;20049;-92
2023/12/04 09:51:39;;;;;;;5.40;4.82;;;3.50;99.90;;;;;;5048478;28;20072;-91
2023/12/04 09:54:06;;;;;;;7.45;5.13;;;3.50;99.90;;;;;;5055468;28;20024;-90
2023/12/04 09:56:34;;;;;;;7.38;4.95;;;3.60;99.90;;;;;;5053777;28;20037;-91
2023/12/04 09:59:00;;;;;;;9.25;4.90;;;3.50;99.90;;;;;;5037898;28;20013;-91
2023/12/04 10:01:30;;;;;;;7.68;5.20;;;3.50;99.90;;;;;;5051031;28;20049;-90
2023/12/04 10:03:58;;;;;;;14.80;6.28;;;3.60;99.90;;;;;;5086395;28;20028;-91
2023/12/04 10:06:27;;;;;;;7.20;5.30;;;3.60;99.90;;;;;;5068871;28;20119;-91
2023/12/04 10:08:55;;;;;;;6.47;5.10;;;3.60;99.90;;;;;;5069514;28;20356;-90
2023/12/04 10:11:21;;;;;;;6.05;5.18;;;3.60;99.90;;;;;;5088198;28;20064;-89
2023/12/04 10:13:46;;;;;;;6.97;4.78;;;3.60;99.90;;;;;;5082296;28;20131;-89
2023/12/04 10:16:12;;;;;;;5.32;4.45;;;3.60;99.90;;;;;;5079269;28;20044;-92
2023/12/04 10:18:38;;;;;;;8.32;5.38;;;3.60;99.90;;;;;;5074634;28;20101;-92
2023/12/04 10:21:07;;;;;;;5.97;4.85;;;3.90;99.90;;;;;;5054595;28;20061;-92
2023/12/04 10:23:42;;;;;;;7.82;4.88;;;3.70;99.90;;;;;;5053158;28;20029;-92
2023/12/04 10:26:08;;;;;;;8.50;4.97;;;3.70;99.90;;;;;;5054672;28;20086;-87
2023/12/04 10:28:34;;;;;;;7.97;4.85;;;3.70;99.90;;;;;;5055629;28;20037;-88
2023/12/04 10:31:00;;;;;;;7.28;4.82;;;3.70;99.90;;;;;;5054342;28;20465;-90
2023/12/04 10:33:28;;;;;;;8.23;4.88;;;3.70;99.90;;;;;;5053495;28;20036;-91
2023/12/04 10:35:55;;;;;;;5.43;4.60;;;3.70;99.90;;;;;;5054212;28;20056;-93
2023/12/04 10:38:20;;;;;;;7.30;5.28;;;3.80;99.90;;;;;;5058568;28;20031;-90
2023/12/04 10:40:46;;;;;;;7.45;5.22;;;3.80;99.90;;;;;;5060058;28;20037;-90
2023/12/04 10:43:19;;;;;;;7.45;4.70;;;4.60;99.90;;;;;;5049313;28;20035;-89
2023/12/04 10:45:46;;;;;;;5.90;4.85;;;3.80;99.90;;;;;;5045967;28;20025;-90
2023/12/04 10:48:14;;;;;;;8.48;5.43;;;4.40;99.90;;;;;;5052189;28;20151;-88
2023/12/04 10:50:42;;;;;;;6.00;5.05;;;4.10;99.90;;;;;;5050844;28;20084;-91
2023/12/04 10:53:09;;;;;;;6.18;4.88;;;3.80;99.90;;;;;;5048086;28;20035;-90
2023/12/04 10:55:35;;;;;;;6.32;5.22;;;3.90;99.90;;;;;;5046248;28;20041;-92
2023/12/04 10:58:05;;;;;;;7.32;4.93;;;3.90;99.90;;;;;;5045429;28;20044;-90
2023/12/04 11:00:33;;;;;;;8.27;5.10;;;4.00;99.90;;;;;;5032474;28;20026;-87
2023/12/04 11:03:08;;;;;;;8.13;4.70;;;3.90;99.90;;;;;;5056946;28;20025;-90
2023/12/04 11:05:40;;;;;;;5.55;4.72;;;3.90;99.90;;;;;;5070487;28;20046;-90
2023/12/04 11:08:22;;;;;;;4.40;4.00;;;3.90;99.90;;;;;;5142427;27;20203;-91
2023/12/04 11:10:50;;;;;;;5.75;4.70;;;3.90;99.90;;;;;;5099373;28;20064;-91
2023/12/04 11:13:21;;;;;;;8.02;5.25;;;3.90;99.90;;;;;;5090762;28;20089;-89
2023/12/04 11:15:52;;;;;;;6.82;4.65;;;3.90;99.90;;;;;;5089600;28;20380;-88
2023/12/04 11:18:22;;;;;;;7.45;4.97;;;3.90;99.90;;;;;;5089737;28;20020;-89
2023/12/04 11:20:53;;;;;;;7.25;5.45;;;3.90;99.90;;;;;;5091909;28;20024;-88
2023/12/04 11:23:20;;;;;;;8.18;5.22;;;4.00;99.90;;;;;;5091334;28;20031;-89
2023/12/04 11:25:47;;;;;;;9.63;5.63;;;4.00;99.90;;;;;;5100361;28;20110;-88
2023/12/04 11:28:13;;;;;;;8.55;5.47;;;4.10;99.90;;;;;;5106555;28;20037;-89
2023/12/04 11:30:39;;;;;;;9.15;5.55;;;4.10;99.90;;;;;;5110987;28;20024;-88
2023/12/04 11:33:05;;;;;;;7.25;5.38;;;4.10;99.90;;;;;;5115171;28;20114;-89
2023/12/04 11:35:33;;;;;;;6.95;5.13;;;4.10;99.90;;;;;;5124087;28;20031;-89
2023/12/04 11:37:59;;;;;;;6.10;5.45;;;4.10;99.90;;;;;;5099473;28;20021;-86
2023/12/04 11:40:25;;;;;;;6.25;5.18;;;4.20;99.90;;;;;;5092150;28;20028;-88
2023/12/04 11:42:52;;;;;;;7.40;4.70;;;4.10;99.90;;;;;;5096060;28;20020;-88
2023/12/04 11:45:20;;;;;;;6.45;5.22;;;4.10;99.90;;;;;;5098617;28;20043;-86
2023/12/04 11:47:55;;;;;;;24.08;6.47;;;4.10;99.90;;;;;;5093900;28;20114;-89
2023/12/04 11:50:21;;;;;;;9.95;6.20;;;4.10;99.90;;;;;;5089060;28;20119;-89
2023/12/04 11:52:47;;;;;;;6.55;5.05;;;4.10;99.90;;;;;;5096356;28;20025;-89
2023/12/04 11:55:22;;;;;;;7.35;5.47;;;4.20;99.90;;;;;;5089617;28;20047;-89
2023/12/04 11:57:50;;;;;;;7.10;5.18;;;4.20;99.90;;;;;;5098410;28;20079;-90
2023/12/04 12:00:16;;;;;;;7.20;5.18;;;4.20;99.90;;;;;;5101797;28;20400;-89
2023/12/04 12:02:49;;;;;;;8.65;5.97;;;4.10;99.90;;;;;;5109595;28;20019;-89
2023/12/04 12:05:15;;;;;;;8.82;5.28;;;4.10;99.90;;;;;;5090829;28;20040;-89
2023/12/04 12:07:40;;;;;;;8.82;5.57;;;4.10;99.90;;;;;;5073155;28;20139;-88
2023/12/04 12:10:06;;;;;;;6.57;5.18;;;4.20;99.90;;;;;;5068820;28;20032;-90
2023/12/04 12:12:33;;;;;;;7.60;6.13;;;4.20;99.90;;;;;;5069657;28;20081;-88
2023/12/04 12:14:59;;;;;;;7.90;5.68;;;4.20;99.90;;;;;;5078933;28;20028;-87
2023/12/04 12:17:25;;;;;;;7.43;5.53;;;4.20;99.90;;;;;;5089291;28;20158;-90
2023/12/04 12:19:50;;;;;;;8.50;6.18;;;4.10;99.90;;;;;;5063422;28;20555;-88
2023/12/04 12:22:17;;;;;;;8.98;5.90;;;4.10;99.90;;;;;;5070081;28;20119;-89
2023/12/04 12:24:43;;;;;;;7.78;5.80;;;4.10;99.90;;;;;;5061310;28;20021;-89
2023/12/04 12:27:09;;;;;;;12.07;6.03;;;4.10;99.90;;;;;;5054590;28;20044;-90
2023/12/04 12:29:34;;;;;;;8.55;6.10;;;4.10;99.90;;;;;;5054556;28;20028;-89
2023/12/04 12:32:00;;;;;;;8.45;5.63;;;4.10;99.90;;;;;;5060953;28;20051;-92
2023/12/04 12:34:27;;;;;;;9.40;6.65;;;4.10;99.90;;;;;;5062783;28;20129;-85
2023/12/04 12:42:05;;;;;;;10.18;6.55;;;4.10;99.90;;;;;;5234671;22;20138;-88
2023/12/04 12:44:40;;;;;;;10.05;7.70;;;4.10;99.90;;;;;;5057620;28;20028;-88
2023/12/04 12:47:07;;;;;;;8.32;7.25;;;4.10;99.90;;;;;;5062894;28;20059;-89
2023/12/04 12:49:33;;;;;;;10.88;6.75;;;4.10;99.90;;;;;;5060558;28;20029;-85